createdAt,value
2023-05-11T00:13:33.429Z,1.4
2023-05-11T00:28:42.100Z,1.4
2023-05-11T02:13:53.681Z,1.7
2023-05-11T02:29:02.561Z,1.6
2023-05-11T04:14:14.387Z,1.2
2023-05-11T06:14:34.281Z,1.3
2023-05-11T08:15:08.261Z,1.2
2023-05-11T08:30:46.370Z,1.2
2023-05-11T08:45:12.467Z,1.2
2023-05-11T09:00:16.342Z,1.3
2023-05-11T09:15:07.024Z,1.3
2023-05-11T09:45:23.295Z,1.4
2023-05-11T10:00:19.988Z,1.3
2023-05-11T10:15:22.054Z,1.3
2023-05-11T12:15:35.639Z,1.3
2023-05-11T12:30:44.528Z,1.3
2023-05-11T12:45:47.538Z,1.2
2023-05-11T13:00:46.570Z,1.2
2023-05-11T13:15:45.987Z,1
2023-05-11T13:30:54.299Z,1
2023-05-11T14:15:55.816Z,1.1
2023-05-11T14:31:05.054Z,1.1
2023-05-11T14:46:06.914Z,1.1
2023-05-11T15:01:06.089Z,1.1
2023-05-11T15:16:05.965Z,1.1
2023-05-11T15:31:19.957Z,1.1
2023-05-11T15:46:19.093Z,1.1
2023-05-11T16:01:19.451Z,1.1
2023-05-11T16:16:21.187Z,1.1
2023-05-11T17:16:26.598Z,1.3
2023-05-11T17:31:36.959Z,1.3
2023-05-11T17:46:36.691Z,1.3
2023-05-11T18:01:37.483Z,1.3
2023-05-11T18:16:36.707Z,1.2
2023-05-11T18:31:45.793Z,1.2
2023-05-11T20:17:09.425Z,1.5
2023-05-11T20:17:17.243Z,1.5
2023-05-11T20:42:45.808Z,1.5
2023-05-11T20:57:55.980Z,1.5
2023-05-11T21:12:50.728Z,1.5
2023-05-11T21:17:08.331Z,1.5
2023-05-11T21:32:16.556Z,1.5
2023-05-11T22:17:17.543Z,1.5
2023-05-11T22:47:25.991Z,1.5
2023-05-11T23:02:29.333Z,1.5
2023-05-11T23:17:33.623Z,1.7
2023-05-11T23:32:52.844Z,1.7
2023-05-11T23:47:53.821Z,1.7
